logo dgac
Domingo 16 de Diciembre del 2018
Buscar por aerodromo o helipuerto
Ingrese nombre de aeródromo, localidad o designador OACI:
TAF: TAF SCBA 162233Z 1700/1724 30018KT 9999 FEW050 TN03/1711Z TX16/1719Z BECMG 1715/1717 30028KT CAVOK
TAF del 16/12/2018 a las 22:33 UTC
Período de validez: desde el 17 a las 00:00 UTC hasta el 17 a las 24:00 UTC
Viento: dirección 300 grados, velocidad 18 nudos
Visibilidad: 10 km o más
Nubes: Escasa nubosidad a 5000 pies sobre el nivel del aeródromo
Temperatura mínima: 3ºC el 17 a las 11:00 UTC
Temperatura máxima: 16ºC el 17 a las 19:00 UTC
Se espera un cambio entre las 15:00 UTC del 17 y las 17:00 UTC del 17, :
Viento: dirección 300 grados, velocidad 28 nudos
Visibilidad: 10 km o más,
    sin nubes bajo los 5.000 pies o bajo del MSA (Mínimo de Seguridad del Aeródromo),
    sin cumulonimbus, y sin fenómenos de tiempo significativo en el aeródromo o alrededores